createdAt,value
2022-07-25T00:01:47.757Z,93.10
2022-07-25T00:04:14.844Z,92.90
2022-07-25T00:06:42.835Z,93.00
2022-07-25T00:09:09.952Z,92.90
2022-07-25T00:11:36.919Z,92.90
2022-07-25T00:14:04.499Z,93.00
2022-07-25T00:16:31.508Z,93.20
2022-07-25T00:18:58.473Z,93.30
2022-07-25T00:21:25.221Z,93.60
2022-07-25T00:23:51.964Z,93.70
2022-07-25T00:26:18.771Z,93.40
2022-07-25T00:28:45.471Z,93.60
2022-07-25T00:31:12.214Z,93.90
2022-07-25T00:33:40.225Z,94.20
2022-07-25T00:36:08.898Z,94.30
2022-07-25T00:38:35.606Z,94.10
2022-07-25T00:41:04.107Z,94.10
2022-07-25T00:43:31.118Z,94.50
2022-07-25T00:45:58.754Z,94.60
2022-07-25T00:48:27.726Z,94.60
2022-07-25T00:50:58.580Z,94.70
2022-07-25T00:53:25.767Z,95.30
2022-07-25T00:55:52.949Z,95.50
2022-07-25T00:58:19.633Z,95.50
2022-07-25T01:00:46.962Z,95.80
2022-07-25T01:03:13.836Z,96.20
2022-07-25T01:05:40.655Z,96.30
2022-07-25T01:08:08.032Z,96.00
2022-07-25T01:10:35.607Z,96.00
2022-07-25T01:13:02.487Z,96.00
2022-07-25T01:15:29.732Z,96.20
2022-07-25T01:17:56.664Z,96.10
2022-07-25T01:20:25.431Z,95.80
2022-07-25T01:22:53.205Z,96.10
2022-07-25T01:25:20.667Z,96.80
2022-07-25T01:27:54.431Z,97.20
2022-07-25T01:30:24.300Z,97.80
2022-07-25T01:32:51.432Z,98.20
2022-07-25T01:35:18.203Z,98.20
2022-07-25T01:37:45.762Z,97.90
2022-07-25T01:40:14.255Z,98.30
2022-07-25T01:42:41.919Z,98.40
2022-07-25T01:45:09.105Z,98.40
2022-07-25T01:47:35.971Z,98.50
2022-07-25T01:50:03.099Z,98.20
2022-07-25T01:52:30.173Z,98.50
2022-07-25T01:54:56.895Z,98.50
2022-07-25T01:57:30.121Z,98.50
2022-07-25T01:59:58.245Z,98.30
2022-07-25T02:02:25.354Z,97.80
2022-07-25T02:04:52.121Z,97.40
2022-07-25T02:07:18.920Z,97.40
2022-07-25T02:09:45.590Z,97.30
2022-07-25T02:12:12.384Z,96.90
2022-07-25T02:14:39.164Z,96.90
2022-07-25T02:17:06.005Z,96.80
2022-07-25T02:19:32.862Z,96.50
2022-07-25T02:22:00.201Z,96.40
2022-07-25T02:24:26.915Z,96.50
2022-07-25T02:26:53.695Z,96.40
2022-07-25T02:29:21.933Z,96.20
2022-07-25T02:31:49.125Z,96.10
2022-07-25T02:34:16.064Z,96.30
2022-07-25T02:36:43.196Z,96.20
2022-07-25T02:39:10.074Z,96.40
2022-07-25T02:41:36.846Z,97.40
2022-07-25T02:44:04.489Z,97.40
2022-07-25T02:46:31.417Z,97.60
2022-07-25T02:48:58.991Z,97.30
2022-07-25T02:51:26.177Z,97.00
2022-07-25T02:53:57.607Z,97.10
2022-07-25T02:56:25.771Z,97.30
2022-07-25T02:58:52.455Z,97.80
2022-07-25T03:01:19.236Z,97.90
2022-07-25T03:03:46.112Z,98.00
2022-07-25T03:06:12.852Z,98.10
2022-07-25T03:08:39.503Z,98.40
2022-07-25T03:11:06.218Z,98.50
2022-07-25T03:13:33.365Z,98.50
2022-07-25T03:16:00.751Z,98.50
2022-07-25T03:18:27.429Z,98.50
2022-07-25T03:20:54.110Z,98.50
2022-07-25T03:23:20.768Z,98.50
2022-07-25T03:25:47.550Z,98.50
2022-07-25T03:28:14.201Z,98.50
2022-07-25T03:30:40.876Z,98.50
2022-07-25T03:33:07.641Z,98.50
2022-07-25T03:35:35.262Z,98.50
2022-07-25T03:38:02.232Z,98.50
2022-07-25T03:40:29.143Z,98.50
2022-07-25T03:42:55.798Z,98.50
2022-07-25T03:45:22.567Z,98.50
2022-07-25T03:47:49.289Z,98.50
2022-07-25T03:50:16.296Z,98.40
2022-07-25T03:52:42.947Z,98.30
2022-07-25T03:55:11.167Z,98.40
2022-07-25T03:57:38.951Z,98.50
2022-07-25T04:00:07.705Z,98.50
2022-07-25T04:02:34.582Z,98.50
2022-07-25T04:05:01.471Z,98.50
2022-07-25T04:07:28.312Z,98.50
2022-07-25T04:09:55.022Z,98.50
2022-07-25T04:12:21.702Z,98.50
2022-07-25T04:14:49.558Z,98.50
2022-07-25T04:17:16.474Z,98.50
2022-07-25T04:19:43.173Z,98.50
2022-07-25T04:22:10.655Z,98.50
2022-07-25T04:24:37.540Z,98.50
2022-07-25T04:27:04.391Z,98.50
2022-07-25T04:29:31.104Z,98.50
2022-07-25T04:31:58.130Z,98.50
2022-07-25T04:34:25.113Z,98.50
2022-07-25T04:36:51.789Z,98.50
2022-07-25T04:39:18.509Z,98.50
2022-07-25T04:41:45.192Z,98.50
2022-07-25T04:44:11.912Z,98.50
2022-07-25T04:46:38.581Z,98.50
2022-07-25T04:49:05.386Z,98.50
2022-07-25T04:51:32.060Z,98.50
2022-07-25T04:53:58.737Z,98.50
2022-07-25T04:56:25.455Z,98.50
2022-07-25T04:58:52.160Z,98.50
2022-07-25T05:01:18.940Z,98.50
2022-07-25T05:03:49.817Z,98.50
2022-07-25T05:06:18.841Z,98.50
2022-07-25T05:08:45.915Z,98.50
2022-07-25T05:11:12.626Z,98.50
2022-07-25T05:13:39.286Z,98.50
2022-07-25T05:16:06.406Z,98.50
2022-07-25T05:18:34.693Z,98.50
2022-07-25T05:21:01.401Z,98.50
2022-07-25T05:23:28.270Z,97.70
2022-07-25T05:25:54.975Z,97.00
2022-07-25T05:28:21.652Z,95.50
2022-07-25T05:30:48.351Z,94.80
2022-07-25T05:33:15.259Z,93.90
2022-07-25T05:35:42.053Z,93.40
2022-07-25T05:38:08.733Z,92.60
2022-07-25T05:40:35.603Z,92.60
2022-07-25T05:43:03.568Z,92.10
2022-07-25T05:45:31.083Z,92.20
2022-07-25T05:47:57.804Z,91.60
2022-07-25T05:50:24.622Z,91.30
2022-07-25T05:52:51.400Z,91.30
2022-07-25T05:55:18.304Z,91.40
2022-07-25T05:57:45.369Z,89.90
2022-07-25T06:00:12.626Z,90.30
2022-07-25T06:02:39.425Z,89.90
2022-07-25T06:05:06.489Z,89.70
2022-07-25T06:07:33.164Z,88.80
2022-07-25T06:09:59.871Z,88.60
2022-07-25T06:12:26.596Z,88.50
2022-07-25T06:14:53.520Z,87.40
2022-07-25T06:17:20.190Z,87.20
2022-07-25T06:19:46.912Z,87.10
2022-07-25T06:22:13.808Z,86.60
2022-07-25T06:24:41.565Z,85.10
2022-07-25T06:27:08.793Z,85.10
2022-07-25T06:29:35.583Z,83.40
2022-07-25T06:32:02.547Z,83.10
2022-07-25T06:34:29.609Z,83.00
2022-07-25T06:36:59.753Z,82.30
2022-07-25T06:39:28.024Z,82.30
2022-07-25T06:41:54.807Z,81.20
2022-07-25T06:44:21.596Z,80.40
2022-07-25T06:46:48.320Z,81.40
2022-07-25T06:49:17.493Z,81.30
2022-07-25T06:51:44.399Z,81.10
2022-07-25T06:54:11.174Z,80.20
2022-07-25T06:56:37.842Z,79.30
2022-07-25T06:59:04.534Z,79.00
2022-07-25T07:01:31.317Z,79.10
2022-07-25T07:03:58.030Z,79.10
2022-07-25T07:06:24.878Z,78.40
2022-07-25T07:08:52.084Z,79.00
2022-07-25T07:11:18.998Z,78.60
2022-07-25T07:13:45.687Z,78.70
2022-07-25T07:16:12.465Z,77.30
2022-07-25T07:18:39.176Z,77.20
2022-07-25T07:21:06.691Z,76.60
2022-07-25T07:23:34.468Z,76.10
2022-07-25T07:26:03.361Z,76.20
2022-07-25T07:28:30.093Z,76.30
2022-07-25T07:31:15.730Z,77.10
2022-07-25T07:33:43.500Z,76.50
2022-07-25T07:36:10.353Z,76.00
2022-07-25T07:38:37.121Z,74.50
2022-07-25T07:41:03.798Z,74.60
2022-07-25T07:43:31.876Z,74.00
2022-07-25T07:46:01.474Z,73.40
2022-07-25T07:48:32.446Z,74.10
2022-07-25T07:51:00.927Z,73.90
2022-07-25T07:53:46.772Z,74.30
2022-07-25T07:56:14.744Z,73.30
2022-07-25T07:58:41.562Z,73.80
2022-07-25T08:01:08.467Z,73.50
2022-07-25T08:03:36.028Z,72.90
2022-07-25T08:06:02.945Z,72.70
2022-07-25T08:08:31.627Z,73.10
2022-07-25T08:10:59.524Z,72.10
2022-07-25T08:13:29.128Z,72.40
2022-07-25T08:15:59.302Z,71.40
2022-07-25T08:18:27.513Z,70.80
2022-07-25T08:20:54.551Z,71.40
2022-07-25T08:23:22.347Z,70.90
2022-07-25T08:25:49.039Z,71.70
2022-07-25T08:28:15.858Z,70.70
2022-07-25T08:30:43.145Z,71.40
2022-07-25T08:33:18.730Z,71.10
2022-07-25T08:35:54.835Z,70.60
2022-07-25T08:38:23.767Z,70.00
2022-07-25T08:40:50.819Z,70.50
2022-07-25T08:43:18.567Z,70.00
2022-07-25T08:45:50.998Z,69.90
2022-07-25T08:48:19.933Z,70.00
2022-07-25T08:50:48.311Z,69.10
2022-07-25T08:53:35.919Z,68.20
2022-07-25T08:56:12.656Z,67.80
2022-07-25T08:58:44.158Z,68.80
2022-07-25T09:01:11.845Z,68.80
2022-07-25T09:03:38.908Z,67.90
2022-07-25T09:06:19.741Z,66.70
2022-07-25T09:08:57.819Z,67.40
2022-07-25T09:11:33.469Z,68.60
2022-07-25T09:14:09.060Z,68.10
2022-07-25T09:16:41.360Z,67.60
2022-07-25T09:19:10.671Z,67.30
2022-07-25T09:21:39.759Z,66.40
2022-07-25T09:24:15.885Z,66.70
2022-07-25T09:26:51.681Z,67.40
2022-07-25T09:29:24.764Z,66.90
2022-07-25T09:31:53.826Z,66.90
2022-07-25T09:34:31.316Z,66.40
2022-07-25T09:36:58.424Z,67.00
2022-07-25T09:39:34.371Z,66.60
2022-07-25T09:42:01.327Z,66.90
2022-07-25T09:44:30.365Z,66.10
2022-07-25T09:46:59.046Z,65.70
2022-07-25T09:49:26.794Z,65.30
2022-07-25T09:51:54.598Z,65.60
2022-07-25T09:54:21.690Z,65.60
2022-07-25T09:56:48.387Z,65.30
2022-07-25T09:59:15.105Z,65.10
2022-07-25T10:01:50.820Z,64.80
2022-07-25T10:04:22.843Z,66.40
2022-07-25T10:07:04.355Z,64.20
2022-07-25T10:09:32.093Z,63.90
2022-07-25T10:12:06.918Z,64.00
2022-07-25T10:14:34.971Z,63.10
2022-07-25T10:17:02.235Z,63.00
2022-07-25T10:19:53.040Z,62.70
2022-07-25T10:22:46.539Z,62.10
2022-07-25T10:25:18.089Z,60.10
2022-07-25T10:27:50.751Z,60.30
2022-07-25T10:30:23.570Z,59.40
2022-07-25T10:32:58.410Z,60.00
2022-07-25T10:35:27.074Z,58.80
2022-07-25T10:37:55.308Z,58.60
2022-07-25T10:40:37.418Z,58.90
2022-07-25T10:43:23.197Z,59.20
2022-07-25T10:45:56.875Z,59.40
2022-07-25T10:48:29.860Z,59.60
2022-07-25T10:51:03.344Z,58.60
2022-07-25T10:53:46.926Z,58.30
2022-07-25T10:56:16.022Z,59.10
2022-07-25T10:58:47.033Z,59.10
2022-07-25T11:01:19.180Z,59.60
2022-07-25T11:03:45.975Z,59.80
2022-07-25T11:06:15.097Z,59.10
2022-07-25T11:08:42.933Z,59.90
2022-07-25T11:11:11.186Z,59.70
2022-07-25T11:13:39.518Z,59.90
2022-07-25T11:16:07.099Z,59.10
2022-07-25T11:18:37.580Z,59.40
2022-07-25T11:21:06.811Z,59.30
2022-07-25T11:23:35.303Z,59.40
2022-07-25T11:26:10.016Z,59.70
2022-07-25T11:28:42.269Z,59.30
2022-07-25T11:31:09.113Z,57.80
2022-07-25T11:33:38.659Z,57.80
2022-07-25T11:36:06.339Z,57.90
2022-07-25T11:38:33.831Z,58.20
2022-07-25T11:41:00.880Z,57.80
2022-07-25T11:43:27.629Z,58.10
2022-07-25T11:46:03.431Z,58.20
2022-07-25T11:48:35.661Z,57.10
2022-07-25T11:51:18.852Z,56.60
2022-07-25T11:53:49.648Z,56.80
2022-07-25T11:59:08.889Z,58.50
2022-07-25T12:01:42.484Z,56.20
2022-07-25T12:04:16.222Z,54.90
2022-07-25T12:06:48.273Z,54.70
2022-07-25T12:09:20.177Z,54.50
2022-07-25T12:11:48.174Z,54.60
2022-07-25T12:14:15.899Z,54.30
2022-07-25T12:16:42.720Z,54.40
2022-07-25T12:19:18.246Z,54.20
2022-07-25T12:21:45.499Z,54.40
2022-07-25T12:24:12.166Z,53.90
2022-07-25T12:26:39.057Z,53.10
2022-07-25T12:29:05.881Z,52.70
2022-07-25T12:31:32.902Z,52.80
2022-07-25T12:33:59.660Z,53.30
2022-07-25T12:36:26.369Z,52.20
2022-07-25T12:38:53.085Z,51.50
2022-07-25T12:41:22.711Z,50.20
2022-07-25T12:43:49.771Z,50.90
2022-07-25T12:46:16.726Z,51.00
2022-07-25T12:48:44.037Z,50.60
2022-07-25T12:51:10.966Z,50.90
2022-07-25T12:53:42.049Z,50.70
2022-07-25T12:56:09.644Z,50.90
2022-07-25T12:58:37.604Z,51.50
2022-07-25T13:01:06.002Z,50.40
2022-07-25T13:03:32.918Z,50.80
2022-07-25T13:05:59.611Z,50.40
2022-07-25T13:08:26.424Z,50.00
2022-07-25T13:10:53.158Z,49.90
2022-07-25T13:13:19.804Z,50.00
2022-07-25T13:15:46.490Z,50.50
2022-07-25T13:18:13.196Z,51.00
2022-07-25T13:20:39.924Z,51.80
2022-07-25T13:23:06.581Z,50.90
2022-07-25T13:25:34.364Z,50.40
2022-07-25T13:28:04.206Z,50.30
2022-07-25T13:30:37.885Z,50.60
2022-07-25T13:33:04.751Z,50.20
2022-07-25T13:35:38.191Z,50.10
2022-07-25T13:38:06.058Z,50.50
2022-07-25T13:40:32.879Z,50.40
2022-07-25T13:42:59.538Z,50.60
2022-07-25T13:45:26.219Z,51.10
2022-07-25T13:48:12.163Z,51.60
2022-07-25T13:50:39.553Z,51.30
2022-07-25T13:53:06.215Z,49.80
2022-07-25T13:55:32.935Z,49.70
2022-07-25T13:57:59.633Z,49.20
2022-07-25T14:00:26.309Z,49.80
2022-07-25T14:02:53.057Z,50.00
2022-07-25T14:05:19.922Z,49.70
2022-07-25T14:07:46.937Z,49.20
2022-07-25T14:10:13.638Z,49.70
2022-07-25T14:12:40.321Z,50.00
2022-07-25T14:15:07.820Z,50.00
2022-07-25T14:17:35.185Z,51.20
2022-07-25T14:20:03.455Z,50.10
2022-07-25T14:22:32.918Z,49.50
2022-07-25T14:24:59.709Z,49.70
2022-07-25T14:27:26.700Z,50.10
2022-07-25T14:29:54.014Z,49.80
2022-07-25T14:32:20.913Z,50.10
2022-07-25T14:34:47.628Z,49.20
2022-07-25T14:37:14.564Z,48.60
2022-07-25T14:39:41.619Z,48.00
2022-07-25T14:42:11.550Z,48.20
2022-07-25T14:44:39.597Z,49.00
2022-07-25T14:47:12.139Z,49.70
2022-07-25T14:49:40.934Z,49.60
2022-07-25T14:52:07.729Z,48.20
2022-07-25T14:54:34.440Z,48.00
2022-07-25T14:57:02.219Z,48.50
2022-07-25T14:59:28.990Z,48.90
2022-07-25T15:01:55.812Z,49.20
2022-07-25T15:04:25.036Z,48.90
2022-07-25T15:06:52.795Z,49.20
2022-07-25T15:09:20.657Z,49.20
2022-07-25T15:11:48.136Z,49.50
2022-07-25T15:14:15.304Z,49.00
2022-07-25T15:16:43.135Z,48.90
2022-07-25T15:19:18.011Z,49.30
2022-07-25T15:21:45.662Z,49.50
2022-07-25T15:24:13.048Z,50.30
2022-07-25T15:26:40.005Z,49.40
2022-07-25T15:29:09.609Z,49.30
2022-07-25T15:31:37.371Z,49.30
2022-07-25T15:34:04.226Z,48.80
2022-07-25T15:36:30.964Z,48.70
2022-07-25T15:38:57.654Z,48.70
2022-07-25T15:41:24.452Z,48.30
2022-07-25T15:43:51.229Z,48.00
2022-07-25T15:46:18.000Z,47.70
2022-07-25T15:48:45.302Z,47.80
2022-07-25T15:51:16.618Z,46.60
2022-07-25T15:53:43.664Z,45.50
2022-07-25T15:56:11.053Z,45.70
2022-07-25T15:58:37.816Z,46.10
2022-07-25T16:01:04.592Z,46.30
2022-07-25T16:03:31.548Z,45.00
2022-07-25T16:05:58.864Z,45.70
2022-07-25T16:08:25.709Z,45.60
2022-07-25T16:10:52.934Z,46.30
2022-07-25T16:13:20.211Z,46.80
2022-07-25T16:15:47.326Z,46.70
2022-07-25T16:18:14.048Z,45.80
2022-07-25T16:20:40.765Z,45.70
2022-07-25T16:23:07.613Z,46.40
2022-07-25T16:25:34.291Z,45.80
2022-07-25T16:28:01.410Z,46.20
2022-07-25T16:30:28.469Z,47.00
2022-07-25T16:32:55.471Z,46.70
2022-07-25T16:35:22.477Z,47.10
2022-07-25T16:37:49.253Z,47.60
2022-07-25T16:40:16.388Z,47.50
2022-07-25T16:42:44.364Z,47.90
2022-07-25T16:45:11.294Z,48.20
2022-07-25T16:47:40.100Z,48.50
2022-07-25T16:50:07.186Z,49.50
2022-07-25T16:52:34.163Z,49.50
2022-07-25T16:55:00.869Z,49.80
2022-07-25T16:57:27.549Z,50.30
2022-07-25T16:59:54.273Z,50.60
2022-07-25T17:02:24.799Z,51.00
2022-07-25T17:04:54.517Z,51.70
2022-07-25T17:07:21.247Z,51.50
2022-07-25T17:09:47.941Z,51.30
2022-07-25T17:12:14.762Z,51.60
2022-07-25T17:14:41.413Z,52.30
2022-07-25T17:17:08.985Z,52.60
2022-07-25T17:19:39.712Z,53.10
2022-07-25T17:22:07.155Z,53.70
2022-07-25T17:24:34.096Z,53.90
2022-07-25T17:27:01.394Z,54.30
2022-07-25T17:29:28.134Z,54.70
2022-07-25T17:31:54.831Z,55.20
2022-07-25T17:34:21.778Z,55.50
2022-07-25T17:36:48.747Z,55.80
2022-07-25T17:39:15.571Z,56.20
2022-07-25T17:41:42.460Z,56.40
2022-07-25T17:44:11.958Z,56.60
2022-07-25T17:46:39.180Z,56.60
2022-07-25T17:49:05.986Z,56.90
2022-07-25T17:51:32.735Z,57.10
2022-07-25T17:53:59.384Z,57.20
2022-07-25T17:56:26.160Z,58.00
2022-07-25T17:58:53.207Z,57.80
2022-07-25T18:01:19.981Z,57.90
2022-07-25T18:03:47.612Z,58.50
2022-07-25T18:06:14.778Z,59.10
2022-07-25T18:08:41.562Z,59.00
2022-07-25T18:11:08.397Z,58.80
2022-07-25T18:13:35.357Z,59.30
2022-07-25T18:16:02.176Z,59.70
2022-07-25T18:18:29.401Z,61.90
2022-07-25T18:20:56.138Z,63.10
2022-07-25T18:23:24.165Z,64.30
2022-07-25T18:25:52.055Z,63.80
2022-07-25T18:28:19.182Z,64.10
2022-07-25T18:30:45.896Z,63.90
2022-07-25T18:33:12.576Z,64.10
2022-07-25T18:35:39.397Z,64.40
2022-07-25T18:38:06.333Z,64.90
2022-07-25T18:40:33.024Z,65.90
2022-07-25T18:42:59.748Z,66.00
2022-07-25T18:45:29.677Z,66.40
2022-07-25T18:47:57.505Z,66.80
2022-07-25T18:50:24.325Z,67.30
2022-07-25T18:52:51.055Z,68.60
2022-07-25T18:55:17.815Z,68.90
2022-07-25T18:57:44.936Z,68.70
2022-07-25T19:00:11.890Z,68.90
2022-07-25T19:02:38.654Z,69.70
2022-07-25T19:05:06.329Z,69.70
2022-07-25T19:07:34.406Z,70.00
2022-07-25T19:10:01.866Z,70.50
2022-07-25T19:12:28.746Z,74.80
2022-07-25T19:14:55.673Z,71.70
2022-07-25T19:17:23.860Z,71.40
2022-07-25T19:19:51.948Z,73.70
2022-07-25T19:22:18.877Z,71.80
2022-07-25T19:24:45.603Z,73.60
2022-07-25T19:27:12.503Z,72.80
2022-07-25T19:29:41.861Z,72.10
2022-07-25T19:32:08.772Z,76.00
2022-07-25T19:34:38.639Z,77.30
2022-07-25T19:37:05.424Z,75.90
2022-07-25T19:39:32.250Z,78.20
2022-07-25T19:41:59.296Z,76.40
2022-07-25T19:44:26.027Z,76.20
2022-07-25T19:46:54.231Z,77.50
2022-07-25T19:49:20.999Z,77.10
2022-07-25T19:51:47.949Z,77.40
2022-07-25T19:54:14.758Z,77.80
2022-07-25T19:56:41.493Z,78.60
2022-07-25T19:59:08.234Z,79.80
2022-07-25T20:01:36.001Z,77.40
2022-07-25T20:04:05.178Z,75.60
2022-07-25T20:06:32.664Z,75.00
2022-07-25T20:08:59.422Z,76.10
2022-07-25T20:11:26.281Z,76.90
2022-07-25T20:13:54.225Z,76.50
2022-07-25T20:16:20.970Z,78.70
2022-07-25T20:18:47.954Z,77.40
2022-07-25T20:21:17.572Z,77.50
2022-07-25T20:23:45.903Z,77.30
2022-07-25T20:26:13.554Z,77.90
2022-07-25T20:28:40.798Z,77.20
2022-07-25T20:31:07.762Z,77.00
2022-07-25T20:33:34.647Z,77.10
2022-07-25T20:36:01.722Z,77.10
2022-07-25T20:38:28.653Z,77.30
2022-07-25T20:40:55.927Z,77.50
2022-07-25T20:43:22.780Z,77.70
2022-07-25T20:45:49.554Z,80.10
2022-07-25T20:48:16.689Z,80.00
2022-07-25T20:50:44.613Z,81.30
2022-07-25T20:53:11.384Z,81.90
2022-07-25T20:55:38.250Z,83.80
2022-07-25T20:58:05.007Z,85.50
2022-07-25T21:00:31.958Z,85.80
2022-07-25T21:02:59.378Z,86.20
2022-07-25T21:05:27.480Z,91.00
2022-07-25T21:07:54.493Z,91.20
2022-07-25T21:10:21.460Z,89.30
2022-07-25T21:12:48.521Z,91.40
2022-07-25T21:15:15.769Z,93.70
2022-07-25T21:17:42.466Z,95.10
2022-07-25T21:20:11.493Z,97.80
2022-07-25T21:22:39.094Z,98.50
2022-07-25T21:25:07.199Z,98.50
2022-07-25T21:27:34.191Z,98.50
2022-07-25T21:30:00.923Z,98.50
2022-07-25T21:32:27.723Z,98.50
2022-07-25T21:34:54.829Z,98.50
2022-07-25T21:37:21.526Z,98.50
2022-07-25T21:39:48.409Z,98.50
2022-07-25T21:42:15.242Z,98.50
2022-07-25T21:44:43.534Z,98.50
2022-07-25T21:47:11.142Z,98.50
2022-07-25T21:49:56.949Z,98.50
2022-07-25T21:52:34.201Z,98.50
2022-07-25T21:55:03.378Z,98.50
2022-07-25T21:57:30.505Z,98.50
2022-07-25T21:59:57.357Z,98.50
2022-07-25T22:02:24.082Z,98.50
2022-07-25T22:04:50.924Z,98.50
2022-07-25T22:07:18.428Z,98.50
2022-07-25T22:09:45.421Z,98.50
2022-07-25T22:12:12.097Z,98.50
2022-07-25T22:14:38.940Z,98.50
2022-07-25T22:17:05.848Z,98.50
2022-07-25T22:19:33.481Z,98.50
2022-07-25T22:22:00.253Z,98.50
2022-07-25T22:24:26.986Z,98.50
2022-07-25T22:26:53.808Z,98.50
2022-07-25T22:29:20.848Z,98.50
2022-07-25T22:31:47.706Z,98.50
2022-07-25T22:34:14.481Z,98.50
2022-07-25T22:36:41.208Z,98.50
2022-07-25T22:39:08.489Z,98.50
2022-07-25T22:41:35.509Z,98.50
2022-07-25T22:44:02.253Z,98.50
2022-07-25T22:46:29.885Z,98.50
2022-07-25T22:48:57.210Z,98.50
2022-07-25T22:51:24.468Z,98.50
2022-07-25T22:53:51.184Z,98.50
2022-07-25T22:56:18.615Z,98.50
2022-07-25T22:58:45.720Z,98.50
2022-07-25T23:01:16.557Z,98.50
2022-07-25T23:03:43.366Z,98.50
2022-07-25T23:06:10.629Z,98.50
2022-07-25T23:08:37.738Z,98.50
2022-07-25T23:11:06.109Z,98.50
2022-07-25T23:13:34.073Z,98.50
2022-07-25T23:16:03.172Z,98.50
2022-07-25T23:18:30.426Z,98.50
2022-07-25T23:20:57.390Z,98.50
2022-07-25T23:23:24.315Z,98.50
2022-07-25T23:25:51.275Z,98.50
2022-07-25T23:28:18.030Z,98.50
2022-07-25T23:30:44.754Z,98.50
2022-07-25T23:33:11.983Z,98.50
2022-07-25T23:35:38.704Z,98.50
2022-07-25T23:38:05.485Z,98.50
2022-07-25T23:40:32.257Z,98.50
2022-07-25T23:42:59.039Z,98.50
2022-07-25T23:45:28.418Z,98.50
2022-07-25T23:47:56.509Z,98.50
2022-07-25T23:50:23.985Z,98.50
2022-07-25T23:52:51.201Z,98.50
2022-07-25T23:55:17.962Z,98.50
2022-07-25T23:57:44.647Z,98.50
